Terminal Aerodrome Forecast
Issued by NWS

Home | Current Version | Previous Version | Text Only | Print | Product List | Glossary On
Versions: 1 2 3 4 5 6 7 8 9 10 11 12 13 14 15 16 17 18
514
FTUS41 KPHI 100525
TAFPNE
TAF
KPNE 100525Z 1006/1106 27005KT P6SM SCT060 BKN200
      TEMPO 1007/1009 5SM -SN BKN060
     FM101700 28011G19KT P6SM BKN040
     FM102200 29008KT P6SM SCT040 BKN200=

USA.gov is the U.S. government's official web portal to all federal, state and local government web resources and services.